createdAt,value
2019-03-20T00:00:02.305Z,2.40
2019-03-20T00:02:29.830Z,1.80
2019-03-20T00:04:57.080Z,1.90
2019-03-20T00:07:24.627Z,2.50
2019-03-20T00:09:51.911Z,2.63
2019-03-20T00:12:19.149Z,2.30
2019-03-20T00:14:46.648Z,2.23
2019-03-20T00:17:13.915Z,2.00
2019-03-20T00:19:41.158Z,2.30
2019-03-20T00:22:08.426Z,2.40
2019-03-20T00:24:35.945Z,1.90
2019-03-20T00:27:03.463Z,2.13
2019-03-20T00:29:30.719Z,2.03
2019-03-20T00:31:57.961Z,2.17
2019-03-20T00:34:25.262Z,1.80
2019-03-20T00:36:52.819Z,1.70
2019-03-20T00:39:20.089Z,1.87
2019-03-20T00:41:47.339Z,2.40
2019-03-20T00:44:14.609Z,1.97
2019-03-20T00:46:41.878Z,2.27
2019-03-20T00:49:09.119Z,2.47
2019-03-20T00:51:36.391Z,2.10
2019-03-20T00:54:03.709Z,2.40
2019-03-20T00:56:31.226Z,2.13
2019-03-20T00:58:58.471Z,2.20
2019-03-20T01:01:25.993Z,2.33
2019-03-20T01:03:53.257Z,2.00
2019-03-20T01:06:20.586Z,1.97
2019-03-20T01:08:47.855Z,2.53
2019-03-20T01:11:15.362Z,2.33
2019-03-20T01:13:42.638Z,1.70
2019-03-20T01:16:09.910Z,1.90
2019-03-20T01:18:37.263Z,1.70
2019-03-20T01:21:04.503Z,2.33
2019-03-20T01:23:31.788Z,2.37
2019-03-20T01:25:59.284Z,2.00
2019-03-20T01:28:26.597Z,2.20
2019-03-20T01:30:53.871Z,2.27
2019-03-20T01:33:21.120Z,1.90
2019-03-20T01:35:48.387Z,2.20
2019-03-20T01:38:15.640Z,2.73
2019-03-20T01:40:42.912Z,2.10
2019-03-20T01:43:10.187Z,1.93
2019-03-20T01:45:37.501Z,2.50
2019-03-20T01:48:05.044Z,1.90
2019-03-20T01:50:32.558Z,2.33
2019-03-20T01:52:59.810Z,1.93
2019-03-20T01:55:27.051Z,2.80
2019-03-20T01:57:54.325Z,2.30
2019-03-20T02:00:21.815Z,1.77
2019-03-20T02:02:49.349Z,2.20
2019-03-20T02:05:16.598Z,3.23
2019-03-20T02:07:43.874Z,2.30
2019-03-20T02:10:12.559Z,2.10
2019-03-20T02:12:40.306Z,1.63
2019-03-20T02:15:08.818Z,2.23
2019-03-20T02:17:36.094Z,2.00
2019-03-20T02:20:04.159Z,2.50
2019-03-20T02:22:31.425Z,2.33
2019-03-20T02:24:58.672Z,1.97
2019-03-20T02:27:25.951Z,1.90
2019-03-20T02:29:53.222Z,1.93
2019-03-20T02:32:20.745Z,1.97
2019-03-20T02:34:48.026Z,2.40
2019-03-20T02:37:15.545Z,2.50
2019-03-20T02:39:42.832Z,1.90
2019-03-20T02:42:10.079Z,2.03
2019-03-20T02:44:37.330Z,2.40
2019-03-20T02:47:04.600Z,2.40
2019-03-20T02:49:31.881Z,2.17
2019-03-20T02:51:59.119Z,1.90
2019-03-20T02:54:26.391Z,1.87
2019-03-20T02:56:53.630Z,2.23
2019-03-20T02:59:21.169Z,1.63
2019-03-20T03:01:48.506Z,2.27
2019-03-20T03:04:15.774Z,2.63
2019-03-20T03:06:43.027Z,2.60
2019-03-20T03:09:10.304Z,2.13
2019-03-20T03:11:37.566Z,2.17
2019-03-20T03:14:04.816Z,2.27
2019-03-20T03:16:32.099Z,2.40
2019-03-20T03:18:59.345Z,2.60
2019-03-20T03:21:26.583Z,1.83
2019-03-20T03:23:53.856Z,2.40
2019-03-20T03:26:21.099Z,1.83
2019-03-20T03:28:48.389Z,2.10
2019-03-20T03:31:15.645Z,2.17
2019-03-20T03:33:42.943Z,2.37
2019-03-20T03:36:20.621Z,2.37
2019-03-20T03:38:39.214Z,1.70
2019-03-20T03:41:06.455Z,2.10
2019-03-20T03:43:33.732Z,2.47
2019-03-20T03:46:01.019Z,1.70
2019-03-20T03:48:28.269Z,2.13
2019-03-20T03:50:55.578Z,1.73
2019-03-20T03:53:22.858Z,1.93
2019-03-20T03:55:50.206Z,2.40
2019-03-20T03:58:17.450Z,2.10
2019-03-20T04:00:44.694Z,2.00
2019-03-20T04:03:11.966Z,2.10
2019-03-20T04:05:39.447Z,1.77
2019-03-20T04:08:06.984Z,1.70
2019-03-20T04:10:34.234Z,2.50
2019-03-20T04:13:01.507Z,2.40
2019-03-20T04:15:28.748Z,2.07
2019-03-20T04:17:56.262Z,2.70
2019-03-20T04:20:23.519Z,2.20
2019-03-20T04:22:51.024Z,2.10
2019-03-20T04:25:18.299Z,2.40
2019-03-20T04:27:45.552Z,1.97
2019-03-20T04:30:14.398Z,1.90
2019-03-20T04:32:41.671Z,2.37
2019-03-20T04:35:09.018Z,2.10
2019-03-20T04:37:36.268Z,2.27
2019-03-20T04:40:04.594Z,1.87
2019-03-20T04:42:31.853Z,2.53
2019-03-20T04:44:59.118Z,2.00
2019-03-20T04:47:26.358Z,1.93
2019-03-20T04:49:53.630Z,1.90
2019-03-20T04:52:20.875Z,2.13
2019-03-20T04:54:48.147Z,2.13
2019-03-20T04:57:15.417Z,1.83
2019-03-20T04:59:42.657Z,2.27
2019-03-20T05:02:09.932Z,2.27
2019-03-20T05:04:37.179Z,2.30
2019-03-20T05:07:04.707Z,2.13
2019-03-20T05:09:31.977Z,2.10
2019-03-20T05:11:59.224Z,2.77
2019-03-20T05:14:26.491Z,1.90
2019-03-20T05:16:53.769Z,2.10
2019-03-20T05:19:21.015Z,1.90
2019-03-20T05:21:48.290Z,2.00
2019-03-20T05:24:15.526Z,2.60
2019-03-20T05:26:42.798Z,2.10
2019-03-20T05:29:10.037Z,2.63
2019-03-20T05:31:37.563Z,2.20
2019-03-20T05:34:05.062Z,2.20
2019-03-20T05:36:32.590Z,1.90
2019-03-20T05:38:59.879Z,2.10
2019-03-20T05:41:27.117Z,1.77
2019-03-20T05:43:54.358Z,2.57
2019-03-20T05:46:21.883Z,2.10
2019-03-20T05:48:49.147Z,2.25
2019-03-20T05:51:16.428Z,2.67
2019-03-20T05:53:43.667Z,3.13
2019-03-20T05:56:10.915Z,1.80
2019-03-20T05:58:38.195Z,2.27
2019-03-20T06:01:05.435Z,2.17
2019-03-20T06:03:32.708Z,2.03
2019-03-20T06:06:00.033Z,2.37
2019-03-20T06:08:27.305Z,1.87
2019-03-20T06:10:54.579Z,2.53
2019-03-20T06:13:21.919Z,2.20
2019-03-20T06:15:49.169Z,2.80
2019-03-20T06:18:16.450Z,2.70
2019-03-20T06:20:43.715Z,2.73
2019-03-20T06:23:11.300Z,2.10
2019-03-20T06:25:38.604Z,1.73
2019-03-20T06:28:05.845Z,1.90
2019-03-20T06:30:33.119Z,2.40
2019-03-20T06:33:00.370Z,2.80
2019-03-20T06:35:27.881Z,2.00
2019-03-20T06:37:55.422Z,2.13
2019-03-20T06:40:22.661Z,1.40
2019-03-20T06:42:49.936Z,1.80
2019-03-20T06:45:17.761Z,2.10
2019-03-20T06:47:45.075Z,1.97
2019-03-20T06:50:13.417Z,2.23
2019-03-20T06:52:40.734Z,1.90
2019-03-20T06:55:08.679Z,2.50
2019-03-20T06:57:36.185Z,2.00
2019-03-20T07:00:21.523Z,1.93
2019-03-20T07:02:48.727Z,2.07
2019-03-20T07:05:20.229Z,1.90
2019-03-20T07:07:47.367Z,1.90
2019-03-20T07:10:18.937Z,2.77
2019-03-20T07:12:46.790Z,2.07
2019-03-20T07:15:14.327Z,2.00
2019-03-20T07:17:41.666Z,2.33
2019-03-20T07:20:10.019Z,2.57
2019-03-20T07:22:37.285Z,3.57
2019-03-20T07:25:05.234Z,2.10
2019-03-20T07:27:32.477Z,2.57
2019-03-20T07:29:59.744Z,1.90
2019-03-20T07:32:27.010Z,2.13
2019-03-20T07:34:54.258Z,2.23
2019-03-20T07:37:21.531Z,2.73
2019-03-20T07:39:48.773Z,2.50
2019-03-20T07:42:16.050Z,2.43
2019-03-20T07:44:43.534Z,2.13
2019-03-20T07:47:10.810Z,2.27
2019-03-20T07:49:38.074Z,2.63
2019-03-20T07:52:05.355Z,2.03
2019-03-20T07:54:32.598Z,2.10
2019-03-20T07:56:59.874Z,2.40
2019-03-20T07:59:27.145Z,2.20
2019-03-20T08:01:54.401Z,1.90
2019-03-20T08:04:21.737Z,2.47
2019-03-20T08:06:49.257Z,2.10
2019-03-20T08:09:16.536Z,2.27
2019-03-20T08:11:43.899Z,2.20
2019-03-20T08:14:11.205Z,2.50
2019-03-20T08:16:38.473Z,2.70
2019-03-20T08:19:05.829Z,2.27
2019-03-20T08:21:33.077Z,1.90
2019-03-20T08:24:00.350Z,1.67
2019-03-20T08:26:27.624Z,1.90
2019-03-20T08:28:54.871Z,2.00
2019-03-20T08:31:22.146Z,2.70
2019-03-20T08:33:49.648Z,1.53
2019-03-20T08:36:16.917Z,1.77
2019-03-20T08:38:44.162Z,2.30
2019-03-20T08:41:11.690Z,2.40
2019-03-20T08:43:38.939Z,1.90
2019-03-20T08:46:06.206Z,1.97
2019-03-20T08:48:33.450Z,2.00
2019-03-20T08:51:01.521Z,2.20
2019-03-20T08:53:28.764Z,1.67
2019-03-20T08:55:56.030Z,2.63
2019-03-20T08:58:23.293Z,2.30
2019-03-20T09:00:50.829Z,2.60
2019-03-20T09:03:18.070Z,2.53
2019-03-20T09:05:45.329Z,2.33
2019-03-20T09:08:12.610Z,2.20
2019-03-20T09:10:40.102Z,2.50
2019-03-20T09:13:07.370Z,2.73
2019-03-20T09:15:34.609Z,2.50
2019-03-20T09:18:01.874Z,2.50
2019-03-20T09:20:29.384Z,2.10
2019-03-20T09:22:56.652Z,1.90
2019-03-20T09:25:24.502Z,2.40
2019-03-20T09:27:52.004Z,2.70
2019-03-20T09:30:22.297Z,2.27
2019-03-20T09:32:49.542Z,2.00
2019-03-20T09:35:17.069Z,2.60
2019-03-20T09:37:51.711Z,2.37
2019-03-20T09:40:14.905Z,2.60
2019-03-20T09:42:42.408Z,3.00
2019-03-20T09:45:10.947Z,2.33
2019-03-20T09:47:38.204Z,2.47
2019-03-20T09:50:07.021Z,3.13
2019-03-20T09:52:34.297Z,2.70
2019-03-20T09:55:01.534Z,2.40
2019-03-20T09:57:28.875Z,2.67
2019-03-20T09:59:56.126Z,2.83
2019-03-20T10:02:23.393Z,2.90
2019-03-20T10:04:50.635Z,3.03
2019-03-20T10:07:17.898Z,2.90
2019-03-20T10:09:45.191Z,3.43
2019-03-20T10:12:12.710Z,2.50
2019-03-20T10:14:39.984Z,3.00
2019-03-20T10:17:07.227Z,2.50
2019-03-20T10:19:34.502Z,3.23
2019-03-20T10:22:01.862Z,2.80
2019-03-20T10:24:29.110Z,2.70
2019-03-20T10:26:56.612Z,2.77
2019-03-20T10:29:24.125Z,2.67
2019-03-20T10:31:51.370Z,2.80
2019-03-20T10:34:18.656Z,2.67
2019-03-20T10:36:45.925Z,3.00
2019-03-20T10:39:13.257Z,2.50
2019-03-20T10:41:40.868Z,3.20
2019-03-20T10:44:08.375Z,3.20
2019-03-20T10:46:35.659Z,3.20
2019-03-20T10:49:02.926Z,3.00
2019-03-20T10:51:30.185Z,2.87
2019-03-20T10:53:57.462Z,3.80
2019-03-20T10:56:24.737Z,3.70
2019-03-20T10:58:51.980Z,3.20
2019-03-20T11:01:19.220Z,2.90
2019-03-20T11:03:46.523Z,3.67
2019-03-20T11:06:13.904Z,2.63
2019-03-20T11:08:41.148Z,3.00
2019-03-20T11:11:08.418Z,2.90
2019-03-20T11:13:35.687Z,3.10
2019-03-20T11:16:02.961Z,2.63
2019-03-20T11:18:30.201Z,2.70
2019-03-20T11:20:57.481Z,3.50
2019-03-20T11:23:24.884Z,2.70
2019-03-20T11:25:52.158Z,2.60
2019-03-20T11:28:19.506Z,3.00
2019-03-20T11:30:47.017Z,3.20
2019-03-20T11:33:14.520Z,3.50
2019-03-20T11:35:42.588Z,3.17
2019-03-20T11:38:10.045Z,2.97
2019-03-20T11:40:40.661Z,3.07
2019-03-20T11:43:08.173Z,2.93
2019-03-20T11:45:35.441Z,3.00
2019-03-20T11:48:02.963Z,3.57
2019-03-20T11:50:34.652Z,3.20
2019-03-20T11:53:01.989Z,3.43
2019-03-20T11:55:29.233Z,2.80
2019-03-20T11:57:56.507Z,2.70
2019-03-20T12:00:23.910Z,3.00
2019-03-20T12:02:51.192Z,2.97
2019-03-20T12:05:18.699Z,3.33
2019-03-20T12:07:45.965Z,2.60
2019-03-20T12:10:19.846Z,3.23
2019-03-20T12:12:47.181Z,3.53
2019-03-20T12:15:14.494Z,2.63
2019-03-20T12:17:42.020Z,3.47
2019-03-20T12:20:10.830Z,3.30
2019-03-20T12:22:38.110Z,3.40
2019-03-20T12:25:06.894Z,3.20
2019-03-20T12:27:34.378Z,3.20
2019-03-20T12:30:01.641Z,3.37
2019-03-20T12:32:28.885Z,3.40
2019-03-20T12:34:56.158Z,2.70
2019-03-20T12:37:23.674Z,3.50
2019-03-20T12:39:53.465Z,3.10
2019-03-20T12:42:28.677Z,3.50
2019-03-20T12:44:56.056Z,3.70
2019-03-20T12:47:23.296Z,3.97
2019-03-20T12:49:50.558Z,3.80
2019-03-20T12:52:18.436Z,3.37
2019-03-20T12:54:45.750Z,3.50
2019-03-20T12:57:13.249Z,3.13
2019-03-20T12:59:40.486Z,3.20
2019-03-20T13:02:08.295Z,3.87
2019-03-20T13:04:35.934Z,5.70
2019-03-20T13:07:03.189Z,4.90
2019-03-20T13:09:30.497Z,4.83
2019-03-20T13:11:57.770Z,4.50
2019-03-20T13:14:25.014Z,4.50
2019-03-20T13:16:52.327Z,4.20
2019-03-20T13:19:19.614Z,4.00
2019-03-20T13:21:47.683Z,4.07
2019-03-20T13:24:15.083Z,3.70
2019-03-20T13:26:42.662Z,3.10
2019-03-20T13:29:10.154Z,3.90
2019-03-20T13:31:37.421Z,4.50
2019-03-20T13:34:04.665Z,3.73
2019-03-20T13:36:31.951Z,3.63
2019-03-20T13:38:59.222Z,3.43
2019-03-20T13:41:26.457Z,3.77
2019-03-20T13:43:53.738Z,3.77
2019-03-20T13:46:20.982Z,3.13
2019-03-20T13:48:48.262Z,3.20
2019-03-20T13:51:15.529Z,3.30
2019-03-20T13:53:42.775Z,3.30
2019-03-20T13:56:10.298Z,3.30
2019-03-20T13:58:37.539Z,3.20
2019-03-20T14:01:05.127Z,3.27
2019-03-20T14:03:32.367Z,6.30
2019-03-20T14:05:59.650Z,5.77
2019-03-20T14:08:26.895Z,4.27
2019-03-20T14:10:54.166Z,3.50
2019-03-20T14:13:21.610Z,3.50
2019-03-20T14:15:49.017Z,3.80
2019-03-20T14:18:16.276Z,5.60
2019-03-20T14:20:43.881Z,5.30
2019-03-20T14:23:11.193Z,4.90
2019-03-20T14:25:38.466Z,5.20
2019-03-20T14:28:05.973Z,4.70
2019-03-20T14:30:33.719Z,4.40
2019-03-20T14:33:01.362Z,4.37
2019-03-20T14:35:28.633Z,4.67
2019-03-20T14:37:55.913Z,4.53
2019-03-20T14:40:35.450Z,4.03
2019-03-20T14:42:57.962Z,4.60
2019-03-20T14:45:25.572Z,4.60
2019-03-20T14:47:52.978Z,3.93
2019-03-20T14:50:21.225Z,4.40
2019-03-20T14:52:48.517Z,4.37
2019-03-20T14:55:15.757Z,3.63
2019-03-20T14:57:43.165Z,3.40
2019-03-20T15:00:11.978Z,3.40
2019-03-20T15:02:39.265Z,3.30
2019-03-20T15:05:07.143Z,3.40
2019-03-20T15:07:34.466Z,3.30
2019-03-20T15:10:01.750Z,13.80
2019-03-20T15:12:29.248Z,12.20
2019-03-20T15:14:56.522Z,7.30
2019-03-20T15:17:23.772Z,3.33
2019-03-20T15:19:51.024Z,9.30
2019-03-20T15:22:18.300Z,3.83
2019-03-20T15:24:45.831Z,8.13
2019-03-20T15:27:13.256Z,4.13
2019-03-20T15:29:40.494Z,4.37
2019-03-20T15:32:07.770Z,4.77
2019-03-20T15:34:35.051Z,6.37
2019-03-20T15:37:02.360Z,5.90
2019-03-20T15:39:29.746Z,6.90
2019-03-20T15:41:57.022Z,5.00
2019-03-20T15:44:24.518Z,2.93
2019-03-20T15:46:51.874Z,4.57
2019-03-20T15:49:19.189Z,3.73
2019-03-20T15:51:46.436Z,3.80
2019-03-20T15:54:13.709Z,4.63
2019-03-20T15:56:41.034Z,2.90
2019-03-20T15:59:08.309Z,4.50
2019-03-20T16:01:35.826Z,2.43
2019-03-20T16:04:03.338Z,3.17
2019-03-20T16:06:30.618Z,2.60
2019-03-20T16:08:57.863Z,4.20
2019-03-20T16:11:25.387Z,5.17
2019-03-20T16:13:52.630Z,2.90
2019-03-20T16:16:19.905Z,2.60
2019-03-20T16:18:47.185Z,3.27
2019-03-20T16:21:14.457Z,3.40
2019-03-20T16:23:41.733Z,3.43
2019-03-20T16:26:08.999Z,2.60
2019-03-20T16:28:36.273Z,7.20
2019-03-20T16:31:03.524Z,5.03
2019-03-20T16:33:30.797Z,6.20
2019-03-20T16:35:58.049Z,6.20
2019-03-20T16:38:25.327Z,7.10
2019-03-20T16:40:52.577Z,11.67
2019-03-20T16:43:19.862Z,5.60
2019-03-20T16:45:47.174Z,5.50
2019-03-20T16:48:14.702Z,3.90
2019-03-20T16:50:41.971Z,4.10
2019-03-20T16:53:09.218Z,3.13
2019-03-20T16:55:36.498Z,4.00
2019-03-20T16:58:03.810Z,3.23
2019-03-20T17:00:31.449Z,2.50
2019-03-20T17:02:58.727Z,2.90
2019-03-20T17:05:29.702Z,2.97
2019-03-20T17:07:57.013Z,3.07
2019-03-20T17:10:31.355Z,2.93
2019-03-20T17:12:59.147Z,2.97
2019-03-20T17:15:27.812Z,3.90
2019-03-20T17:17:55.154Z,3.07
2019-03-20T17:20:22.470Z,3.37
2019-03-20T17:22:49.737Z,2.90
2019-03-20T17:25:17.007Z,3.27
2019-03-20T17:27:44.522Z,3.23
2019-03-20T17:30:19.003Z,2.60
2019-03-20T17:32:46.277Z,2.37
2019-03-20T17:35:13.723Z,2.83
2019-03-20T17:37:40.978Z,2.07
2019-03-20T17:40:10.105Z,2.60
2019-03-20T17:42:37.350Z,3.10
2019-03-20T17:45:06.300Z,2.33
2019-03-20T17:47:33.606Z,2.33
2019-03-20T17:50:00.887Z,2.27
2019-03-20T17:52:28.369Z,2.40
2019-03-20T17:54:55.645Z,2.10
2019-03-20T17:57:22.923Z,2.12
2019-03-20T17:59:50.254Z,2.93
2019-03-20T18:02:24.022Z,2.40
2019-03-20T18:04:46.488Z,2.10
2019-03-20T18:07:13.778Z,2.30
2019-03-20T18:09:41.377Z,3.33
2019-03-20T18:12:08.618Z,3.23
2019-03-20T18:14:35.885Z,3.20
2019-03-20T18:17:03.414Z,3.00
2019-03-20T18:19:30.961Z,3.27
2019-03-20T18:21:58.201Z,3.07
2019-03-20T18:24:25.722Z,3.07
2019-03-20T18:26:52.966Z,3.60
2019-03-20T18:29:20.240Z,3.77
2019-03-20T18:31:47.483Z,4.27
2019-03-20T18:34:14.726Z,3.93
2019-03-20T18:36:41.998Z,3.77
2019-03-20T18:39:09.323Z,3.97
2019-03-20T18:41:36.601Z,4.13
2019-03-20T18:44:03.918Z,4.27
2019-03-20T18:46:31.161Z,4.07
2019-03-20T18:48:58.434Z,4.10
2019-03-20T18:51:25.706Z,4.40
2019-03-20T18:53:52.993Z,5.00
2019-03-20T18:56:20.310Z,4.43
2019-03-20T18:58:47.546Z,4.40
2019-03-20T19:01:14.821Z,5.77
2019-03-20T19:03:43.759Z,5.27
2019-03-20T19:06:15.593Z,4.70
2019-03-20T19:08:43.013Z,5.20
2019-03-20T19:11:11.608Z,5.13
2019-03-20T19:13:38.969Z,4.70
2019-03-20T19:16:06.740Z,5.50
2019-03-20T19:18:34.226Z,6.37
2019-03-20T19:21:01.499Z,5.33
2019-03-20T19:23:28.767Z,5.83
2019-03-20T19:25:56.050Z,5.77
2019-03-20T19:28:23.566Z,5.40
2019-03-20T19:30:51.217Z,5.37
2019-03-20T19:33:18.883Z,6.10
2019-03-20T19:35:46.834Z,6.43
2019-03-20T19:38:14.268Z,6.37
2019-03-20T19:40:41.586Z,6.33
2019-03-20T19:43:08.987Z,6.23
2019-03-20T19:45:36.682Z,6.33
2019-03-20T19:48:04.502Z,5.97
2019-03-20T19:50:32.050Z,6.07
2019-03-20T19:52:59.484Z,7.07
2019-03-20T19:55:26.946Z,7.33
2019-03-20T19:57:54.718Z,7.10
2019-03-20T20:00:22.689Z,7.63
2019-03-20T20:02:50.858Z,6.90
2019-03-20T20:05:19.843Z,7.30
2019-03-20T20:07:47.096Z,6.93
2019-03-20T20:10:16.648Z,7.30
2019-03-20T20:12:43.985Z,7.00
2019-03-20T20:15:21.878Z,7.37
2019-03-20T20:17:49.201Z,7.73
2019-03-20T20:20:17.536Z,8.00
2019-03-20T20:22:44.777Z,8.30
2019-03-20T20:25:12.060Z,8.73
2019-03-20T20:27:39.329Z,8.57
2019-03-20T20:30:08.119Z,8.30
2019-03-20T20:32:35.383Z,8.83
2019-03-20T20:35:02.667Z,8.27
2019-03-20T20:37:29.939Z,8.80
2019-03-20T20:39:57.443Z,8.50
2019-03-20T20:42:24.979Z,8.93
2019-03-20T20:44:52.254Z,8.80
2019-03-20T20:47:19.502Z,7.73
2019-03-20T20:49:46.781Z,9.10
2019-03-20T20:52:19.373Z,8.43
2019-03-20T20:54:43.283Z,8.40
2019-03-20T20:57:10.563Z,8.20
2019-03-20T20:59:37.802Z,8.80
2019-03-20T21:02:05.128Z,8.40
2019-03-20T21:04:32.475Z,8.43
2019-03-20T21:07:00.008Z,8.87
2019-03-20T21:09:27.253Z,8.17
2019-03-20T21:11:54.528Z,8.33
2019-03-20T21:14:22.073Z,8.30
2019-03-20T21:16:49.602Z,8.67
2019-03-20T21:19:21.599Z,8.90
2019-03-20T21:21:50.454Z,8.33
2019-03-20T21:24:23.887Z,8.30
2019-03-20T21:27:04.799Z,8.90
2019-03-20T21:29:42.291Z,7.60
2019-03-20T21:32:17.003Z,9.03
2019-03-20T21:35:02.322Z,7.43
2019-03-20T21:37:37.132Z,9.00
2019-03-20T21:40:05.979Z,8.50
2019-03-20T21:42:51.287Z,8.63
2019-03-20T21:45:26.120Z,8.70
2019-03-20T21:47:53.655Z,8.57
2019-03-20T21:50:39.130Z,7.47
2019-03-20T21:53:06.723Z,7.67
2019-03-20T21:55:51.829Z,8.00
2019-03-20T21:58:20.613Z,7.67
2019-03-20T22:00:52.080Z,8.00
2019-03-20T22:03:19.623Z,7.50
2019-03-20T22:05:48.482Z,7.50
2019-03-20T22:08:16.019Z,7.20
2019-03-20T22:11:00.103Z,7.60
2019-03-20T22:13:29.268Z,6.87
2019-03-20T22:16:04.037Z,7.00
2019-03-20T22:18:49.371Z,7.83
2019-03-20T22:21:30.261Z,7.87
2019-03-20T22:23:59.050Z,7.30
2019-03-20T22:26:27.866Z,6.37
2019-03-20T22:28:56.680Z,6.37
2019-03-20T22:31:24.454Z,7.10
2019-03-20T22:34:09.810Z,7.90
2019-03-20T22:36:37.454Z,7.37
2019-03-20T22:39:09.238Z,6.53
2019-03-20T22:41:40.818Z,7.50
2019-03-20T22:44:08.342Z,7.17
2019-03-20T22:46:53.747Z,6.77
2019-03-20T22:49:37.619Z,6.30
2019-03-20T22:52:15.285Z,7.40
2019-03-20T22:54:44.094Z,6.97
2019-03-20T22:57:24.744Z,7.40
2019-03-20T22:59:52.090Z,7.23
2019-03-20T23:02:20.903Z,7.50
2019-03-20T23:04:49.627Z,7.60
2019-03-20T23:07:16.871Z,7.93
2019-03-20T23:09:44.142Z,7.20
2019-03-20T23:12:12.406Z,8.10
2019-03-20T23:14:39.645Z,6.73
2019-03-20T23:17:06.982Z,8.27
2019-03-20T23:19:34.626Z,6.47
2019-03-20T23:22:02.134Z,7.83
2019-03-20T23:24:29.412Z,6.93
2019-03-20T23:26:57.255Z,7.30
2019-03-20T23:29:24.527Z,7.23
2019-03-20T23:31:51.802Z,6.90
2019-03-20T23:34:19.041Z,7.37
2019-03-20T23:36:46.327Z,7.57
2019-03-20T23:39:13.570Z,7.27
2019-03-20T23:41:40.842Z,7.00
2019-03-20T23:44:08.117Z,6.70
2019-03-20T23:46:35.562Z,6.70
2019-03-20T23:49:22.406Z,7.20
2019-03-20T23:51:49.721Z,6.50
2019-03-20T23:54:18.472Z,6.47
2019-03-20T23:56:45.716Z,6.40
2019-03-20T23:59:12.972Z,6.67
